Details From EGNV - Durham Tees Valley
To EGHI - Southampton
Flight Number -
Tags Generated
Created
Modified
Stats Distance 214 nm / 396 km
Max Altitude 0 ft / 0 m
Waypoints 2
Social Downloads 2
Likes 0
Share VATSIM

Download

Looking for another format? Having issues loading an existing format? Contact us
Advertisement - Login to hide

Notes

Generated

Route

EGNV EGHI

ID Type Via Altitude Latitude Longitude Leg Dist Tot Dist Heading (true) Name
O EGNV APT - 0 ft / 0 m 54.50223˚ -1.44243˚ - 0 nm - -
O EGHI APT - 0 ft / 0 m 50.94295˚ -1.36088˚ 213 nm 213 nm 179° / 179° -

Altitude Profile

Advertisement - Login to hide

Weather


0- 5 10 15 20 25 30 35+ Temperature / ° C

Clouds and Precipitation
Forecast for 2017-12-12 12:00 UTC. Updated 2 hours ago

Ground ~20,000 ft ~40,000 ft Winds

EGNV

Details ICAO EGNV (MME)
Name Durham Tees Valley
Region United Kingdom
Timezone Europe/London (UTC+0.0)
Stats Elevation 120 ft / 37 m (AMSL)
Location 54.509191° -1.429433°
Runways 1
Magnetic Variation 1.301° W

METAR

EGNV 121220Z 19005KT CAVOK 01/M02 Q1004

Decode

TAF

Not found

Departure Runways

ID Width Length Bearing (true) Bearing (mag) Surface Threshold Offset Overrun Length
05 148 ft / 45 m 7,501 ft / 2,286 m 47.37° 48.67° Asphalt 0 ft / 0 m 400 ft / 122 m
23 148 ft / 45 m 7,501 ft / 2,286 m 227.39° 228.69° Asphalt 0 ft / 0 m 0 ft / 0 m

EGHI

Details ICAO EGHI (SOU)
Name Southampton
Region United Kingdom
Timezone Europe/London (UTC+0.0)
Stats Elevation 44 ft / 13 m (AMSL)
Location 50.950255° -1.356806°
Runways 1
Magnetic Variation 0.813° W

METAR

EGHI 121220Z VRB01KT CAVOK 04/M01 Q1010

Decode

TAF

Not found

Destination Runways

ID Width Length Bearing (true) Bearing (mag) Surface Threshold Offset Overrun Length
02 121 ft / 37 m 5,650 ft / 1,722 m 19.33° 20.14° Asphalt 240 ft / 73 m 0 ft / 0 m
20 121 ft / 37 m 5,650 ft / 1,722 m 199.34° 200.15° Asphalt 144 ft / 44 m 0 ft / 0 m

Approach Navaids

Runway Type Ident Frequency Range Bearing (true) Bearing (mag) Slope Elevation
20 Localiser ISN 110.75 MHz 18 nm / 33 km 199.34° 200.15° - 44 ft / 13 m (AMSL)
20 Glidescope ISN 110.75 MHz 10 nm / 19 km 199.34° 200.15° 3.10° 44 ft / 13 m (AMSL)
20 DME ISN 110.75 MHz 18 nm / 33 km - - - 54 ft / 16 m (AMSL)